首页
METAR-TAF:

METAR-TAF

机场 :

蓋恩斯維爾, 佛罗里达州, 美国

纬度: 29-41-31N, 经度: 082-16-32W, 海拔: 46米

当前天气观测

该预报发布于14分钟前的17:25 UTC
静风
温度 32°C
湿度 63%
气压 1020 hPa
能見度: 16.1公里
少量云层高于7500英尺
雷暴

METAR: KGNV 071725Z 00000KT 10SM TS FEW075 32/24 A3011 RMK AO2 LTG DSNT S-NW TSB19 T03220239

时间: 13:39 (17:39 UTC)

预报

该预报发布于1小时和1分钟前的16:38 UTC
预报有效从07日的 17点(UTC)到 08日的 12点(UTC)
风速5节,风向西转西南
能見度: 10公里
散云层高于2500英尺
多云层高于4000英尺, 积雨云.
多云层高于10000英尺
附近有雷暴
短暂存在
从 07日的 17点(UTC)到 07日的 20点(UTC)
风速15节,风向多变,有时为25节阵风
能見度: 3.2公里
多云层高于2500英尺, 积雨云.
雷暴, 大雨
从 08日的 0000点(UTC)
风速节,风向
能見度: 10公里
散云层高于5000英尺
多云层高于18000英尺

TAF: KGNV 071638Z 0717/0812 24005KT P6SM VCTS SCT025 BKN040CB BKN100 TEMPO 0717/0720 VRB15G25KT 2SM +TSRA BKN025CB FM080000 00000KT P6SM SCT050 BKN180

超过4000个机场的气象观测和天气预报(METAR&TAF报告)。

可查询的气象台以黄色和红色小点在地图上表示。

将鼠标移到小点上方,可查看气象台名称。

然后点击查看天气观测和预报。

如需切换地图:点击带黑十字的绿色按钮放大地图;点击带横线的绿色按钮缩小地图;或者点击绿色箭头查看邻近地区的地图。


METAR-TAF: